Skip Navigation Links
NOAA logo - Click to go to the NOAA homepage
NOAA's National Weather Service
Alaska Aviation Weather Unit
  NWS logo - Click to go to the NWS homepage
Left Navbar Graphic     03 AKDT = 11 GMT

   
NOAA is celebrating 200 years of science, service, and stewardship. Visit the NOAA 200th celebration Web site to learn more.
USA.gov is the U.S. Government's official Web portal to all Federal, state and local government Web resources and services.
Facebook
NWS on Facebook

Important Change Regarding the AAWU Web Presence

 

Over the last several months, the AAWU has been working to navigate its webpages to a nationally supported server. Security, as well as other needs, have necessitated the change.  We have been given an extension for the site changeover while we diligently work at addressing feedback received. As of July 14, 2017, aawu.arh.noaa.gov will be discontinued. The new AAWU web address is weather.gov/aawu. It is now live and will run in-parallel with the old site until it is discontinued on July 14, 2017. Please continue to send any feedback or questions regarding the new webpages to nws.ar.aawu.webauthors@noaa.gov.  Thank you for your patience during this time of transition.
AAWU Home :: Display TAF Add Bookmark
TAF PAOM 231139Z 2312/2412  30005KT P6SM FEW025
     FM231600 32005KT P6SM SCT025 BKN050
     FM240200 35010G16KT P6SM FEW025 SCT050=

6513
FTAK31 PAFA 231139
TAFAOR
TAF
METAR PAOM 230553Z 30012KT 10SM FEW030 07/03 A2979=

METAR PAOM 230653Z 31009KT 10SM SCT035 06/03 A2979=

METAR PAOM 230753Z AUTO 32005KT 10SM CLR 04/03 A2978=

METAR PAOM 230853Z AUTO 32007KT 10SM SCT035 04/03 A2977=

METAR PAOM 230953Z AUTO 29007KT 10SM CLR 03/03 A2977=

METAR PAOM 231053Z AUTO 30005KT 10SM CLR 03/02 A2976=


NOAA's National Weather Service
Alaska Aviation Weather Unit
6930 Sand Lake Road
Anchorage, AK 99502-1845
Disclaimer
Credits
Glossary
Privacy Policy
About Us
Career Opportunities
Contact AAWU Internet Services Site last modified: April, 17th 2012